Time;durP1;ratioP1;P1;durP2;ratioP2;P2;SDS_P1;SDS_P2;PMS_P1;PMS_P2;Temp;Humidity;BMP_temperature;BMP_pressure;BME280_temperature;BME280_humidity;BME280_pressure;Samples;Min_cycle;Max_cycle;Signal;HPM_P1;HPM_P2
2023/10/21 00:00:32;;;;;;;21.50;9.48;;;10.10;99.90;;;;;;5016447;28;20481;-63
2023/10/21 00:02:58;;;;;;;17.60;8.50;;;10.10;99.90;;;;;;5019504;28;20124;-63
2023/10/21 00:05:25;;;;;;;17.27;8.57;;;10.10;99.90;;;;;;5022523;28;20029;-63
2023/10/21 00:07:51;;;;;;;17.75;8.75;;;10.00;99.90;;;;;;5019491;28;20394;-63
2023/10/21 00:10:17;;;;;;;22.77;8.80;;;10.00;99.90;;;;;;5012912;28;20104;-63
2023/10/21 00:12:44;;;;;;;21.17;9.20;;;10.00;99.90;;;;;;5017606;28;20044;-63
2023/10/21 00:15:11;;;;;;;22.45;9.60;;;10.00;99.90;;;;;;5015176;28;20124;-63
2023/10/21 00:17:36;;;;;;;18.95;9.27;;;10.00;99.90;;;;;;5018988;28;20158;-63
2023/10/21 00:20:06;;;;;;;17.08;8.30;;;10.00;99.90;;;;;;5017309;28;20655;-62
2023/10/21 00:22:33;;;;;;;16.17;8.65;;;10.00;99.90;;;;;;5019178;28;20038;-63
2023/10/21 00:25:00;;;;;;;18.73;9.20;;;10.10;99.90;;;;;;5018119;28;20056;-62
2023/10/21 00:27:26;;;;;;;19.27;9.38;;;10.00;99.90;;;;;;5016188;28;20042;-63
2023/10/21 00:29:51;;;;;;;18.92;8.15;;;10.00;99.90;;;;;;5022693;28;20029;-63
2023/10/21 00:32:17;;;;;;;18.50;9.02;;;10.00;99.90;;;;;;5017880;28;20087;-63
2023/10/21 00:34:43;;;;;;;18.45;9.20;;;10.00;99.90;;;;;;5014969;28;20137;-63
2023/10/21 00:37:09;;;;;;;18.23;8.82;;;10.00;99.90;;;;;;5018095;28;20045;-62
2023/10/21 00:39:35;;;;;;;21.98;9.93;;;10.00;99.90;;;;;;5018268;28;20065;-63
2023/10/21 00:42:02;;;;;;;18.55;9.55;;;10.10;99.90;;;;;;5014094;28;20133;-63
2023/10/21 00:44:27;;;;;;;18.80;9.27;;;10.10;99.90;;;;;;5017533;28;20022;-63
2023/10/21 00:46:54;;;;;;;18.88;9.35;;;10.10;99.90;;;;;;5018705;28;20106;-63
2023/10/21 00:49:20;;;;;;;22.08;10.20;;;10.10;99.90;;;;;;5011811;28;20069;-63
2023/10/21 00:51:48;;;;;;;20.08;9.60;;;10.10;99.90;;;;;;5016213;28;20041;-66
2023/10/21 00:54:16;;;;;;;18.70;10.15;;;10.10;99.90;;;;;;5020387;28;20041;-62
2023/10/21 00:56:42;;;;;;;19.98;9.57;;;10.00;99.90;;;;;;5014777;28;20566;-62
2023/10/21 00:59:10;;;;;;;18.02;9.10;;;10.00;99.90;;;;;;5019692;28;20037;-65
2023/10/21 01:01:36;;;;;;;17.10;8.85;;;10.00;99.90;;;;;;5015230;28;20101;-62
2023/10/21 01:04:04;;;;;;;18.55;9.90;;;10.00;99.90;;;;;;5019057;28;20120;-63
2023/10/21 01:06:33;;;;;;;22.60;9.45;;;10.00;99.90;;;;;;5013487;28;20037;-63
2023/10/21 01:08:59;;;;;;;20.30;10.13;;;10.00;99.90;;;;;;5016595;28;20066;-63
2023/10/21 01:11:25;;;;;;;16.73;9.15;;;10.10;99.90;;;;;;5014830;28;20041;-63
2023/10/21 01:13:51;;;;;;;18.60;9.88;;;10.00;99.90;;;;;;5013405;28;20033;-63
2023/10/21 01:16:17;;;;;;;23.00;10.70;;;10.00;99.90;;;;;;5018642;28;20034;-63
2023/10/21 01:18:43;;;;;;;23.88;11.02;;;10.00;99.90;;;;;;5021436;28;20095;-63
2023/10/21 01:21:10;;;;;;;18.40;9.68;;;10.00;99.90;;;;;;5017236;28;20033;-63
2023/10/21 01:23:36;;;;;;;21.55;10.90;;;10.00;99.90;;;;;;5018448;28;20596;-62
2023/10/21 01:26:04;;;;;;;18.70;10.15;;;10.00;99.90;;;;;;5016876;28;20026;-63
2023/10/21 01:28:30;;;;;;;22.70;11.18;;;10.00;99.90;;;;;;5017828;28;20084;-63
2023/10/21 01:30:57;;;;;;;18.02;9.60;;;10.10;99.90;;;;;;5019080;28;20037;-63
2023/10/21 01:33:22;;;;;;;17.73;8.68;;;10.10;99.90;;;;;;5018671;28;20064;-63
2023/10/21 01:35:48;;;;;;;18.70;9.27;;;10.10;99.90;;;;;;5017165;28;20060;-63
2023/10/21 01:38:18;;;;;;;16.15;9.30;;;10.10;99.90;;;;;;5018562;28;20045;-64
2023/10/21 01:40:44;;;;;;;17.55;9.10;;;10.20;99.90;;;;;;5017803;28;20042;-63
2023/10/21 01:43:10;;;;;;;16.23;9.10;;;10.20;99.90;;;;;;5018093;28;20049;-63
2023/10/21 01:45:37;;;;;;;20.88;9.70;;;10.20;99.90;;;;;;5017715;28;20389;-63
2023/10/21 01:48:04;;;;;;;17.92;9.25;;;10.20;99.90;;;;;;5017051;28;20022;-63
2023/10/21 01:50:31;;;;;;;16.83;8.82;;;10.20;99.90;;;;;;5016098;28;20494;-63
2023/10/21 01:52:57;;;;;;;21.30;9.75;;;10.20;99.90;;;;;;5015243;28;20072;-63
2023/10/21 01:55:23;;;;;;;17.08;8.70;;;10.20;99.90;;;;;;5016755;28;20033;-63
2023/10/21 01:57:49;;;;;;;17.27;8.73;;;10.30;99.90;;;;;;5014943;28;20038;-61
2023/10/21 02:00:21;;;;;;;19.10;9.30;;;10.30;99.90;;;;;;5018114;28;20037;-63
2023/10/21 02:02:53;;;;;;;18.00;9.63;;;10.30;99.90;;;;;;5016489;28;20485;-62
2023/10/21 02:05:20;;;;;;;21.13;10.32;;;10.30;99.90;;;;;;5015952;28;20486;-63
2023/10/21 02:07:46;;;;;;;16.08;9.18;;;10.30;99.90;;;;;;5014536;28;20029;-63
2023/10/21 02:10:12;;;;;;;18.90;9.85;;;10.40;99.90;;;;;;5019836;28;20088;-63
2023/10/21 02:12:38;;;;;;;18.23;9.38;;;10.40;99.90;;;;;;5018459;28;20041;-63
2023/10/21 02:15:17;;;;;;;19.95;9.23;;;10.30;99.90;;;;;;5020279;28;20087;-63
2023/10/21 02:17:45;;;;;;;17.80;9.77;;;10.30;99.90;;;;;;5015343;28;20064;-63
2023/10/21 02:20:12;;;;;;;18.98;9.73;;;10.30;99.90;;;;;;5018797;28;20037;-63
2023/10/21 02:22:38;;;;;;;20.10;10.57;;;10.30;99.90;;;;;;5015138;28;20112;-63
2023/10/21 02:25:07;;;;;;;20.63;10.63;;;10.30;99.90;;;;;;5020491;28;20041;-63
2023/10/21 02:27:33;;;;;;;21.55;10.85;;;10.20;99.90;;;;;;5012378;28;20033;-63
2023/10/21 02:29:59;;;;;;;16.33;8.82;;;10.20;99.90;;;;;;5017076;28;20044;-63
2023/10/21 02:32:24;;;;;;;16.77;9.30;;;10.10;99.90;;;;;;5012463;28;20037;-63
2023/10/21 02:34:55;;;;;;;18.95;9.23;;;10.10;99.90;;;;;;5017542;28;20037;-63
2023/10/21 02:37:22;;;;;;;18.80;10.20;;;10.10;99.90;;;;;;5013735;28;20029;-62
2023/10/21 02:39:48;;;;;;;16.83;9.40;;;10.20;99.90;;;;;;5021223;28;20033;-62
2023/10/21 02:42:14;;;;;;;16.65;8.80;;;10.20;99.90;;;;;;5019018;28;20033;-63
2023/10/21 02:44:39;;;;;;;17.40;9.25;;;10.20;99.90;;;;;;5018404;28;20498;-63
2023/10/21 02:47:05;;;;;;;17.73;9.95;;;10.30;99.90;;;;;;5020546;28;20029;-63
2023/10/21 02:49:32;;;;;;;22.67;10.05;;;10.30;99.90;;;;;;5022264;28;20029;-63
2023/10/21 02:51:58;;;;;;;17.92;9.98;;;10.40;99.90;;;;;;5023915;28;20572;-63
2023/10/21 02:54:25;;;;;;;14.90;8.30;;;10.40;99.90;;;;;;5021417;28;20036;-63
2023/10/21 02:56:51;;;;;;;15.73;9.07;;;10.30;99.90;;;;;;5018687;28;20052;-63
2023/10/21 02:59:17;;;;;;;15.52;7.88;;;10.30;99.90;;;;;;5020867;28;20565;-63
2023/10/21 03:01:42;;;;;;;16.10;8.10;;;10.40;99.90;;;;;;5020208;28;20076;-63
2023/10/21 03:04:08;;;;;;;14.65;9.05;;;10.40;99.90;;;;;;5022214;28;20179;-63
2023/10/21 03:06:36;;;;;;;18.05;9.18;;;10.40;99.90;;;;;;5019542;28;20030;-63
2023/10/21 03:09:04;;;;;;;18.23;8.75;;;10.40;99.90;;;;;;5022446;28;20367;-63
2023/10/21 03:11:31;;;;;;;14.45;8.48;;;10.40;99.90;;;;;;5019979;28;20042;-63
2023/10/21 03:13:57;;;;;;;16.67;8.27;;;10.50;99.90;;;;;;5022044;28;20543;-63
2023/10/21 03:16:23;;;;;;;19.80;9.13;;;10.50;99.90;;;;;;5020627;28;20029;-63
2023/10/21 03:18:50;;;;;;;17.40;8.63;;;10.50;99.90;;;;;;5020417;28;20033;-63
2023/10/21 03:21:15;;;;;;;18.50;8.57;;;10.50;99.90;;;;;;5021181;28;20076;-63
2023/10/21 03:23:41;;;;;;;18.08;9.23;;;10.50;99.90;;;;;;5020455;28;20057;-63
2023/10/21 03:26:07;;;;;;;17.70;8.80;;;10.50;99.90;;;;;;5021127;28;20112;-63
2023/10/21 03:28:34;;;;;;;24.42;9.20;;;10.40;99.90;;;;;;5017902;28;20818;-63
2023/10/21 03:31:04;;;;;;;18.35;8.90;;;10.40;99.90;;;;;;5022747;28;20506;-63
2023/10/21 03:33:31;;;;;;;15.15;8.10;;;10.40;99.90;;;;;;5018548;28;20041;-62
2023/10/21 03:36:01;;;;;;;13.82;7.93;;;10.40;99.90;;;;;;5022853;28;20025;-63
2023/10/21 03:38:27;;;;;;;17.80;7.68;;;10.40;99.90;;;;;;5013762;28;20084;-63
2023/10/21 03:41:07;;;;;;;16.13;8.27;;;10.40;99.90;;;;;;5022313;28;20129;-63
2023/10/21 03:43:34;;;;;;;12.82;8.00;;;10.40;99.90;;;;;;5016247;28;20037;-63
2023/10/21 03:46:04;;;;;;;15.57;8.43;;;10.40;99.90;;;;;;5022793;28;20029;-63
2023/10/21 03:48:31;;;;;;;17.85;8.77;;;10.40;99.90;;;;;;5016018;28;20372;-63
2023/10/21 03:51:11;;;;;;;18.40;8.57;;;10.40;99.90;;;;;;5024973;28;20037;-63
2023/10/21 03:53:41;;;;;;;20.60;8.95;;;10.40;99.90;;;;;;5016625;28;20486;-63
2023/10/21 03:56:08;;;;;;;15.00;8.80;;;10.40;99.90;;;;;;5022255;28;20569;-63
2023/10/21 03:58:34;;;;;;;18.33;9.20;;;10.40;99.90;;;;;;5016043;28;20029;-63
2023/10/21 04:01:00;;;;;;;14.80;8.80;;;10.50;99.90;;;;;;5022991;28;20221;-63
2023/10/21 04:03:26;;;;;;;16.75;7.97;;;10.40;99.90;;;;;;5016288;28;20130;-63
2023/10/21 04:05:53;;;;;;;29.00;8.43;;;10.50;99.90;;;;;;5023039;28;20038;-63
2023/10/21 04:08:23;;;;;;;13.30;7.97;;;10.50;99.90;;;;;;5016795;28;20033;-63
2023/10/21 04:10:49;;;;;;;17.30;8.82;;;10.50;99.90;;;;;;5022704;28;20480;-63
2023/10/21 04:13:15;;;;;;;15.43;8.48;;;10.40;99.90;;;;;;5017053;28;20477;-63
2023/10/21 04:15:41;;;;;;;14.70;8.13;;;10.40;99.90;;;;;;5021294;28;20117;-63
2023/10/21 04:18:07;;;;;;;13.60;7.63;;;10.40;99.90;;;;;;5017427;28;20108;-63
2023/10/21 04:20:33;;;;;;;15.18;8.40;;;10.40;99.90;;;;;;5021912;28;20445;-63
2023/10/21 04:23:00;;;;;;;13.18;7.93;;;10.50;99.90;;;;;;5019872;28;20865;-63
2023/10/21 04:25:27;;;;;;;12.48;7.55;;;10.50;99.90;;;;;;5019690;28;20120;-63
2023/10/21 04:27:53;;;;;;;16.30;7.90;;;10.50;99.90;;;;;;5014642;28;20033;-63
2023/10/21 04:30:19;;;;;;;14.52;7.75;;;10.50;99.90;;;;;;5021010;28;20565;-63
2023/10/21 04:32:44;;;;;;;13.05;7.55;;;10.50;99.90;;;;;;5018810;28;20137;-63
2023/10/21 04:35:10;;;;;;;12.15;7.82;;;10.50;99.90;;;;;;5020845;28;20037;-63
2023/10/21 04:37:36;;;;;;;14.43;8.15;;;10.50;99.90;;;;;;5017863;28;20037;-63
2023/10/21 04:40:03;;;;;;;11.27;7.45;;;10.50;99.90;;;;;;5019967;28;20041;-63
2023/10/21 04:42:29;;;;;;;16.85;8.32;;;10.50;99.90;;;;;;5016894;28;20041;-63
2023/10/21 04:44:55;;;;;;;13.63;7.97;;;10.50;99.90;;;;;;5020848;28;20103;-63
2023/10/21 04:47:21;;;;;;;14.43;7.85;;;10.50;99.90;;;;;;5019199;28;20029;-63
2023/10/21 04:49:47;;;;;;;13.25;7.50;;;10.40;99.90;;;;;;5020034;28;20746;-63
2023/10/21 04:52:17;;;;;;;12.57;7.75;;;10.50;99.90;;;;;;5021734;28;20029;-63
2023/10/21 04:54:43;;;;;;;14.80;7.25;;;10.50;99.90;;;;;;5015311;28;20041;-63
2023/10/21 04:57:10;;;;;;;13.70;7.80;;;10.50;99.90;;;;;;5020942;28;20080;-63
2023/10/21 04:59:38;;;;;;;14.85;7.85;;;10.50;99.90;;;;;;5015129;28;20486;-63
2023/10/21 05:02:05;;;;;;;13.20;7.47;;;10.50;99.90;;;;;;5021588;28;20025;-63
2023/10/21 05:04:31;;;;;;;14.90;6.57;;;10.50;99.90;;;;;;5014340;28;20512;-63
2023/10/21 05:06:57;;;;;;;10.32;6.82;;;10.50;99.90;;;;;;5023354;28;20061;-63
2023/10/21 05:09:23;;;;;;;13.63;7.75;;;10.50;99.90;;;;;;5014377;28;20102;-63
2023/10/21 05:11:49;;;;;;;11.90;7.35;;;10.50;99.90;;;;;;5021223;28;20774;-63
2023/10/21 05:14:15;;;;;;;12.90;7.35;;;10.50;99.90;;;;;;5015827;28;20040;-63
2023/10/21 05:16:41;;;;;;;15.38;8.88;;;10.40;99.90;;;;;;5020084;28;20073;-63
2023/10/21 05:19:06;;;;;;;12.18;7.05;;;10.40;99.90;;;;;;5017503;28;20046;-63
2023/10/21 05:21:32;;;;;;;10.88;6.75;;;10.30;99.90;;;;;;5019197;28;20029;-63
2023/10/21 05:23:58;;;;;;;14.45;7.43;;;10.30;99.90;;;;;;5018247;28;20158;-63
2023/10/21 05:26:26;;;;;;;13.05;7.85;;;10.40;99.90;;;;;;5018727;28;20040;-63
2023/10/21 05:28:51;;;;;;;13.38;8.07;;;10.40;99.90;;;;;;5018043;28;20033;-62
2023/10/21 05:31:17;;;;;;;15.38;7.93;;;10.40;99.90;;;;;;5017951;28;20044;-62
2023/10/21 05:33:44;;;;;;;12.45;7.82;;;10.40;99.90;;;;;;5016952;28;20044;-62
2023/10/21 05:36:10;;;;;;;14.18;8.13;;;10.40;99.90;;;;;;5019763;28;20135;-62
2023/10/21 05:38:36;;;;;;;15.85;7.45;;;10.40;99.90;;;;;;5016796;28;20057;-62
2023/10/21 05:41:02;;;;;;;12.88;8.23;;;10.50;99.90;;;;;;5019789;28;20072;-62
2023/10/21 05:43:28;;;;;;;14.05;8.32;;;10.50;99.90;;;;;;5016688;28;20450;-62
2023/10/21 05:45:54;;;;;;;13.98;8.60;;;10.50;99.90;;;;;;5018982;28;20071;-62
2023/10/21 05:48:20;;;;;;;13.45;8.23;;;10.60;99.90;;;;;;5018013;28;20115;-66
2023/10/21 05:50:47;;;;;;;13.13;7.75;;;10.60;99.90;;;;;;5019141;28;20444;-64
2023/10/21 05:53:13;;;;;;;12.00;7.70;;;10.50;99.90;;;;;;5019046;28;20037;-62
2023/10/21 05:55:43;;;;;;;13.85;7.32;;;10.50;99.90;;;;;;5020607;28;20091;-64
2023/10/21 05:58:09;;;;;;;12.93;8.20;;;10.50;99.90;;;;;;5019673;28;20124;-63
2023/10/21 06:00:35;;;;;;;13.02;7.43;;;10.50;99.90;;;;;;5016327;28;20033;-63
2023/10/21 06:03:02;;;;;;;12.20;7.30;;;10.50;99.90;;;;;;5020195;28;20083;-76
2023/10/21 06:05:28;;;;;;;16.38;6.95;;;10.60;99.90;;;;;;5016852;28;20036;-63
2023/10/21 06:07:54;;;;;;;13.13;7.35;;;10.50;99.90;;;;;;5019924;28;20128;-63
2023/10/21 06:10:20;;;;;;;12.32;7.88;;;10.50;99.90;;;;;;5015508;28;20041;-63
2023/10/21 06:12:46;;;;;;;12.50;7.45;;;10.50;99.90;;;;;;5018725;28;20532;-64
2023/10/21 06:15:12;;;;;;;12.07;7.25;;;10.50;99.90;;;;;;5017599;28;20617;-63
2023/10/21 06:17:38;;;;;;;11.55;7.15;;;10.50;99.90;;;;;;5019322;28;20120;-63
2023/10/21 06:20:05;;;;;;;13.57;7.63;;;10.50;99.90;;;;;;5019458;28;20048;-63
2023/10/21 06:22:31;;;;;;;14.25;7.30;;;10.60;99.90;;;;;;5022912;28;20701;-63
2023/10/21 06:24:57;;;;;;;12.10;7.45;;;10.60;99.90;;;;;;5023985;28;20037;-63
2023/10/21 06:27:23;;;;;;;11.88;7.57;;;10.70;99.90;;;;;;5023483;28;20033;-63
2023/10/21 06:29:49;;;;;;;12.10;7.38;;;10.70;99.90;;;;;;5019871;28;20034;-63
2023/10/21 06:32:14;;;;;;;10.00;6.43;;;10.70;99.90;;;;;;5025097;28;20040;-63
2023/10/21 06:34:40;;;;;;;11.38;7.10;;;10.80;99.90;;;;;;5018608;28;20037;-63
2023/10/21 06:37:06;;;;;;;9.93;6.70;;;10.80;99.90;;;;;;5025352;28;20037;-64
2023/10/21 06:39:32;;;;;;;11.68;7.30;;;10.80;99.90;;;;;;5018673;28;20037;-63
2023/10/21 06:41:57;;;;;;;12.10;7.65;;;10.90;99.90;;;;;;5025787;28;20037;-64
2023/10/21 06:44:23;;;;;;;12.77;7.13;;;10.90;99.90;;;;;;5018338;28;20038;-63
2023/10/21 06:46:49;;;;;;;9.45;6.38;;;10.90;99.90;;;;;;5019834;28;20041;-64
2023/10/21 06:49:15;;;;;;;11.90;6.72;;;10.90;99.90;;;;;;5022151;28;20056;-63
2023/10/21 06:51:41;;;;;;;11.25;7.43;;;10.90;99.90;;;;;;5014557;28;20502;-63
2023/10/21 06:54:09;;;;;;;10.48;6.65;;;10.90;99.90;;;;;;5019530;28;20041;-63
2023/10/21 06:56:35;;;;;;;11.23;6.47;;;11.00;99.90;;;;;;5018953;28;20037;-63
2023/10/21 06:59:01;;;;;;;12.02;7.25;;;11.00;99.90;;;;;;5022203;28;20037;-63
2023/10/21 07:01:27;;;;;;;11.00;6.95;;;11.00;99.90;;;;;;5019078;28;20072;-63
2023/10/21 07:03:53;;;;;;;11.07;7.05;;;11.10;99.90;;;;;;5021624;28;20053;-63
2023/10/21 07:06:20;;;;;;;9.88;6.75;;;11.10;99.90;;;;;;5019785;28;20116;-63
2023/10/21 07:08:46;;;;;;;11.27;6.97;;;11.20;99.90;;;;;;5020836;28;20072;-63
2023/10/21 07:11:13;;;;;;;9.18;6.30;;;11.20;99.90;;;;;;5019436;28;20049;-63
2023/10/21 07:13:39;;;;;;;11.25;6.68;;;11.30;99.90;;;;;;5019854;28;20046;-63
2023/10/21 07:16:10;;;;;;;9.38;6.32;;;11.40;99.90;;;;;;5018415;28;20080;-63
2023/10/21 07:18:36;;;;;;;10.27;7.03;;;11.40;99.90;;;;;;5020683;28;20037;-63
2023/10/21 07:21:04;;;;;;;10.27;6.82;;;11.40;99.90;;;;;;5019684;28;20056;-63
2023/10/21 07:23:33;;;;;;;10.65;7.07;;;11.40;99.90;;;;;;5019670;28;20104;-63
2023/10/21 07:25:59;;;;;;;13.77;7.50;;;11.50;99.90;;;;;;5014163;28;20045;-64
2023/10/21 07:28:25;;;;;;;10.07;6.78;;;11.50;99.90;;;;;;5020449;28;20748;-63
2023/10/21 07:30:52;;;;;;;10.18;7.20;;;11.60;99.90;;;;;;5018302;28;20037;-64
2023/10/21 07:33:18;;;;;;;12.02;7.07;;;11.50;99.90;;;;;;5022961;28;20037;-63
2023/10/21 07:35:43;;;;;;;11.80;7.00;;;11.60;99.90;;;;;;5017929;28;20044;-63
2023/10/21 07:38:09;;;;;;;9.35;6.78;;;11.70;99.90;;;;;;5023654;28;20041;-63
2023/10/21 07:40:35;;;;;;;14.25;8.02;;;11.70;99.90;;;;;;5016897;28;20042;-63
2023/10/21 07:43:02;;;;;;;12.38;8.13;;;11.80;99.90;;;;;;5024018;28;20021;-63
2023/10/21 07:45:28;;;;;;;12.43;7.32;;;11.80;99.90;;;;;;5017051;28;20030;-63
2023/10/21 07:47:54;;;;;;;11.52;7.88;;;11.90;99.90;;;;;;5023195;28;20082;-64
2023/10/21 07:50:20;;;;;;;12.65;7.78;;;11.90;99.90;;;;;;5020546;28;20762;-65
2023/10/21 07:52:46;;;;;;;13.55;7.97;;;12.00;99.90;;;;;;5023944;28;20037;-65
2023/10/21 07:55:14;;;;;;;13.80;7.97;;;12.10;99.90;;;;;;5019614;28;20120;-65
2023/10/21 07:57:40;;;;;;;11.82;7.85;;;12.20;99.90;;;;;;5021477;28;20566;-64
2023/10/21 08:00:06;;;;;;;11.38;7.55;;;12.30;99.90;;;;;;5020664;28;20128;-64
2023/10/21 08:02:34;;;;;;;11.18;7.38;;;12.40;99.90;;;;;;5018281;28;20128;-63
2023/10/21 08:05:00;;;;;;;12.05;6.85;;;12.50;99.90;;;;;;5021058;28;20029;-65
2023/10/21 08:07:26;;;;;;;12.98;7.97;;;12.50;99.90;;;;;;5017624;28;20037;-64
2023/10/21 08:09:52;;;;;;;12.35;8.05;;;12.60;99.90;;;;;;5020533;28;20030;-65
2023/10/21 08:12:18;;;;;;;12.43;7.38;;;12.60;99.90;;;;;;5018372;28;20030;-65
2023/10/21 08:14:44;;;;;;;13.05;8.65;;;12.60;99.90;;;;;;5019638;28;20030;-65
2023/10/21 08:17:09;;;;;;;12.82;8.05;;;12.60;99.90;;;;;;5021860;28;20029;-65
2023/10/21 08:19:36;;;;;;;13.90;8.77;;;12.60;99.90;;;;;;5015353;28;20051;-65
2023/10/21 08:22:03;;;;;;;15.63;8.32;;;12.70;99.90;;;;;;5017295;28;20141;-64
2023/10/21 08:24:28;;;;;;;11.88;7.88;;;12.80;99.90;;;;;;5019212;28;20041;-65
2023/10/21 08:26:54;;;;;;;15.10;8.35;;;12.80;99.90;;;;;;5018338;28;20075;-65
2023/10/21 08:29:20;;;;;;;12.52;8.20;;;13.00;99.90;;;;;;5020778;28;20033;-64
2023/10/21 08:31:47;;;;;;;15.25;8.20;;;13.30;99.90;;;;;;5016730;28;20538;-65
2023/10/21 08:34:13;;;;;;;12.02;8.05;;;13.40;99.90;;;;;;5021767;28;20037;-65
2023/10/21 08:36:40;;;;;;;12.10;7.68;;;13.40;99.90;;;;;;5016034;28;20112;-65
2023/10/21 08:39:07;;;;;;;12.90;8.07;;;13.50;99.90;;;;;;5023545;28;20075;-65
2023/10/21 08:41:37;;;;;;;9.85;7.20;;;13.70;99.90;;;;;;5014544;28;20041;-65
2023/10/21 08:44:08;;;;;;;11.85;8.00;;;13.80;99.90;;;;;;5020297;28;20026;-65
2023/10/21 08:46:34;;;;;;;9.73;7.20;;;13.80;99.90;;;;;;5019557;28;20033;-65
2023/10/21 08:49:05;;;;;;;10.05;6.82;;;13.80;99.90;;;;;;5020990;28;20032;-65
2023/10/21 08:51:33;;;;;;;9.48;7.20;;;13.80;99.90;;;;;;5014427;28;20034;-65
2023/10/21 08:54:03;;;;;;;13.35;7.40;;;13.80;99.90;;;;;;5019620;28;20044;-65
2023/10/21 08:56:30;;;;;;;12.43;7.05;;;13.90;99.90;;;;;;5013585;28;20034;-65
2023/10/21 08:58:56;;;;;;;10.93;6.72;;;14.00;99.90;;;;;;5012655;28;20036;-65
2023/10/21 09:01:24;;;;;;;10.93;6.75;;;14.10;99.90;;;;;;5017680;28;20048;-65
2023/10/21 09:03:51;;;;;;;11.00;7.20;;;14.10;99.90;;;;;;5021270;28;20739;-65
2023/10/21 09:06:19;;;;;;;10.32;6.22;;;14.20;99.90;;;;;;5018863;28;20033;-65
2023/10/21 09:08:49;;;;;;;10.25;5.97;;;14.20;99.90;;;;;;5013927;28;20767;-65
2023/10/21 09:11:18;;;;;;;8.07;6.20;;;14.30;99.90;;;;;;5015096;28;20527;-65
2023/10/21 09:13:45;;;;;;;9.10;6.75;;;14.30;99.90;;;;;;5016733;28;20493;-65
2023/10/21 09:16:32;;;;;;;8.07;5.95;;;14.30;99.90;;;;;;5016255;28;20048;-65
2023/10/21 09:19:06;;;;;;;7.70;5.85;;;14.30;99.90;;;;;;5015576;28;20037;-65
2023/10/21 09:21:40;;;;;;;9.05;6.07;;;14.30;99.90;;;;;;5015794;28;20482;-65
2023/10/21 09:24:11;;;;;;;8.52;5.38;;;14.40;99.90;;;;;;5015010;28;20040;-65
2023/10/21 09:26:42;;;;;;;7.65;5.28;;;14.50;99.90;;;;;;5016020;28;20036;-65
2023/10/21 09:29:13;;;;;;;10.30;4.93;;;14.60;99.90;;;;;;5017556;28;20545;-65
2023/10/21 09:31:48;;;;;;;7.55;5.20;;;14.60;99.90;;;;;;5014266;28;20073;-65
2023/10/21 09:34:25;;;;;;;8.60;5.72;;;14.50;99.90;;;;;;5017996;28;20116;-65
2023/10/21 09:36:55;;;;;;;7.05;5.43;;;14.60;99.90;;;;;;5015290;28;20029;-65
2023/10/21 09:39:22;;;;;;;7.07;5.72;;;14.50;99.90;;;;;;5018468;28;20038;-65
2023/10/21 09:41:48;;;;;;;11.07;5.85;;;14.60;99.90;;;;;;5013695;28;20682;-65
2023/10/21 09:44:17;;;;;;;7.32;5.05;;;14.70;99.90;;;;;;5018169;28;20025;-65
2023/10/21 09:46:44;;;;;;;6.40;4.78;;;14.60;99.90;;;;;;5017403;28;20714;-65
2023/10/21 09:49:14;;;;;;;6.55;4.97;;;14.60;99.90;;;;;;5018886;28;20041;-65
2023/10/21 09:51:53;;;;;;;9.15;4.60;;;14.70;99.90;;;;;;5006127;28;20128;-65
2023/10/21 09:54:53;;;;;;;6.05;4.68;;;14.90;99.90;;;;;;5022310;28;20061;-65
2023/10/21 09:57:19;;;;;;;5.25;4.32;;;15.10;99.90;;;;;;5012331;28;20069;-65
2023/10/21 09:59:47;;;;;;;4.63;3.75;;;15.30;99.90;;;;;;5021439;28;20046;-65
2023/10/21 10:02:14;;;;;;;7.93;4.30;;;15.50;99.90;;;;;;5024035;28;20120;-65
2023/10/21 10:04:40;;;;;;;6.18;3.42;;;15.60;99.90;;;;;;5021543;28;20060;-65
2023/10/21 10:07:06;;;;;;;4.05;3.33;;;15.60;99.90;;;;;;5022453;28;20033;-65
2023/10/21 10:09:35;;;;;;;4.30;2.80;;;15.70;99.90;;;;;;5020811;28;20033;-69
2023/10/21 10:12:07;;;;;;;4.60;3.17;;;15.90;99.90;;;;;;5021227;28;20136;-69
2023/10/21 10:14:33;;;;;;;3.33;2.40;;;15.80;99.90;;;;;;5021249;28;20049;-69
2023/10/21 10:17:00;;;;;;;3.03;2.35;;;15.90;99.90;;;;;;5021655;28;20042;-69
2023/10/21 10:19:37;;;;;;;2.72;2.00;;;15.90;99.90;;;;;;5020466;28;20033;-69
2023/10/21 10:22:32;;;;;;;3.35;1.60;;;16.00;99.90;;;;;;5016309;28;20051;-70
2023/10/21 10:25:10;;;;;;;1.70;1.50;;;16.10;99.90;;;;;;5025797;28;20040;-70
2023/10/21 10:27:40;;;;;;;2.05;1.50;;;16.30;99.90;;;;;;5017637;28;20044;-69
2023/10/21 10:30:15;;;;;;;6.05;1.50;;;16.40;99.90;;;;;;5025667;28;20037;-69
2023/10/21 10:32:43;;;;;;;1.50;1.02;;;16.60;99.90;;;;;;5017984;28;20041;-70
2023/10/21 10:35:26;;;;;;;1.48;0.55;;;17.10;99.90;;;;;;5023189;28;20065;-70
2023/10/21 10:37:52;;;;;;;3.05;0.90;;;17.50;99.90;;;;;;5024242;28;20800;-70
2023/10/21 10:40:19;;;;;;;2.72;0.93;;;18.20;99.90;;;;;;5023745;28;20037;-69
2023/10/21 10:42:45;;;;;;;1.35;0.90;;;19.60;99.90;;;;;;5019632;28;20072;-70
2023/10/21 10:45:11;;;;;;;0.93;0.80;;;21.30;97.70;;;;;;5022947;28;20485;-70
2023/10/21 10:47:40;;;;;;;1.10;0.85;;;23.30;93.80;;;;;;5018606;28;20053;-69
2023/10/21 10:50:16;;;;;;;1.08;0.80;;;24.60;90.80;;;;;;5019167;28;20493;-70
2023/10/21 10:52:41;;;;;;;0.82;0.80;;;24.90;88.50;;;;;;5018953;28;20243;-70
2023/10/21 10:55:11;;;;;;;1.58;0.60;;;23.60;90.10;;;;;;5022216;28;20503;-70
2023/10/21 10:57:37;;;;;;;2.22;0.68;;;22.20;92.50;;;;;;5015938;28;20564;-70
2023/10/21 11:00:10;;;;;;;1.00;0.60;;;21.00;94.10;;;;;;5007546;28;20044;-69
2023/10/21 11:02:42;;;;;;;0.40;0.40;;;20.20;95.50;;;;;;5016858;28;20732;-69
2023/10/21 11:05:09;;;;;;;0.60;0.60;;;19.60;97.10;;;;;;5022600;28;20029;-70
2023/10/21 11:07:35;;;;;;;1.00;0.45;;;19.30;97.60;;;;;;5015421;28;20022;-70
2023/10/21 11:10:02;;;;;;;1.25;0.30;;;19.20;98.90;;;;;;5023969;28;20029;-70
2023/10/21 11:12:28;;;;;;;1.33;0.47;;;19.20;99.20;;;;;;5019995;28;20033;-69
2023/10/21 11:14:54;;;;;;;0.63;0.30;;;19.30;99.10;;;;;;5022832;28;20037;-70
2023/10/21 11:17:20;;;;;;;3.80;0.40;;;19.40;99.20;;;;;;5021137;28;20147;-70
2023/10/21 11:19:46;;;;;;;0.20;0.20;;;19.50;98.40;;;;;;5020998;28;20068;-70
2023/10/21 11:22:26;;;;;;;1.98;0.20;;;19.50;98.20;;;;;;5025143;28;20094;-70
2023/10/21 11:24:55;;;;;;;2.30;0.30;;;19.40;97.40;;;;;;5023652;28;20034;-70
2023/10/21 11:27:22;;;;;;;0.45;0.20;;;19.40;98.40;;;;;;5015023;28;20037;-70
2023/10/21 11:29:51;;;;;;;0.70;0.20;;;19.50;98.10;;;;;;5019895;28;20461;-69
2023/10/21 11:32:30;;;;;;;0.22;0.20;;;19.60;97.00;;;;;;5019125;28;20444;-70
2023/10/21 11:35:04;;;;;;;0.90;0.43;;;19.50;97.00;;;;;;5023379;28;20136;-69
2023/10/21 11:37:31;;;;;;;0.20;0.20;;;19.40;97.50;;;;;;5019647;28;20040;-70
2023/10/21 11:40:00;;;;;;;0.22;0.20;;;19.30;96.80;;;;;;5022885;28;20030;-70
2023/10/21 11:42:27;;;;;;;0.38;0.13;;;19.30;97.20;;;;;;5018019;28;20037;-70
2023/10/21 11:44:57;;;;;;;2.85;0.28;;;19.10;97.50;;;;;;5020764;28;20022;-70
2023/10/21 11:47:26;;;;;;;0.10;0.10;;;19.20;97.90;;;;;;5017026;28;20036;-70
2023/10/21 11:49:54;;;;;;;0.10;0.10;;;19.10;97.00;;;;;;5020136;28;20033;-70
2023/10/21 11:52:29;;;;;;;2.25;0.30;;;19.00;97.00;;;;;;5016914;28;20043;-70
2023/10/21 12:40:37;;;;;;;0.75;0.30;;;19.20;96.80;;;;;;5019299;28;20829;-70
2023/10/21 12:45:53;;;;;;;0.73;0.20;;;19.10;97.30;;;;;;5018760;28;20064;-70
2023/10/21 12:48:19;;;;;;;0.52;0.30;;;19.20;97.50;;;;;;5015955;28;20034;-71
2023/10/21 12:50:49;;;;;;;0.43;0.10;;;19.30;97.20;;;;;;5019260;28;20115;-71
2023/10/21 12:53:18;;;;;;;0.40;0.30;;;19.30;97.40;;;;;;5013775;28;20061;-70
2023/10/21 12:55:45;;;;;;;0.70;0.20;;;19.40;97.40;;;;;;5005343;28;20041;-70
2023/10/21 12:58:10;;;;;;;3.70;0.20;;;19.50;96.20;;;;;;5017416;28;20091;-70
2023/10/21 13:00:37;;;;;;;0.32;0.20;;;19.40;96.90;;;;;;5017923;28;20034;-70
2023/10/21 13:03:10;;;;;;;0.35;0.30;;;19.20;97.10;;;;;;5013219;28;20045;-70
2023/10/21 13:05:41;;;;;;;2.17;0.40;;;19.20;97.10;;;;;;5019196;28;20037;-70
2023/10/21 13:08:09;;;;;;;0.68;0.38;;;19.30;97.10;;;;;;5017059;28;20437;-68
2023/10/21 13:10:35;;;;;;;0.47;0.20;;;19.50;97.20;;;;;;5017025;28;20037;-70
2023/10/21 13:13:02;;;;;;;2.60;0.50;;;19.70;96.20;;;;;;5017324;28;20144;-70
2023/10/21 13:15:29;;;;;;;0.52;0.20;;;19.70;96.20;;;;;;5014446;28;20026;-70
2023/10/21 13:17:55;;;;;;;0.75;0.60;;;19.70;96.20;;;;;;5017433;28;20034;-69
2023/10/21 13:20:21;;;;;;;0.30;0.30;;;19.70;96.40;;;;;;5019732;28;20508;-70
2023/10/21 13:22:47;;;;;;;0.85;0.47;;;19.70;96.70;;;;;;5015815;28;20831;-70
2023/10/21 13:25:13;;;;;;;1.00;0.50;;;19.90;97.00;;;;;;5018809;28;20036;-71
2023/10/21 13:27:42;;;;;;;0.47;0.30;;;20.00;96.10;;;;;;5017273;28;20080;-70